createdAt,value
2018-05-21T00:00:43.369Z,19.18
2018-05-21T00:01:43.679Z,19.16
2018-05-21T00:02:43.673Z,19.19
2018-05-21T00:03:43.712Z,19.12
2018-05-21T00:04:43.730Z,19.11
2018-05-21T00:05:43.776Z,19.02
2018-05-21T00:06:43.513Z,19.08
2018-05-21T00:07:43.514Z,19.08
2018-05-21T00:08:43.562Z,19.07
2018-05-21T00:09:43.575Z,18.9
2018-05-21T00:10:43.879Z,19.04
2018-05-21T00:11:43.878Z,18.99
2018-05-21T00:12:49.906Z,18.99
2018-05-21T00:13:43.906Z,18.9
2018-05-21T00:14:43.966Z,18.96
2018-05-21T00:15:43.995Z,18.9
2018-05-21T00:16:44.123Z,18.95
2018-05-21T00:17:43.732Z,18.92
2018-05-21T00:18:44.023Z,18.9
2018-05-21T00:19:44.056Z,18.93
2018-05-21T00:20:44.088Z,18.92
2018-05-21T00:21:43.821Z,18.92
2018-05-21T00:22:44.118Z,18.9
2018-05-21T00:23:44.147Z,18.86
2018-05-21T00:24:44.173Z,18.84
2018-05-21T00:25:44.168Z,18.84
2018-05-21T00:26:44.214Z,18.86
2018-05-21T00:27:43.971Z,18.74
2018-05-21T00:28:43.986Z,18.75
2018-05-21T00:29:44.273Z,18.77
2018-05-21T00:30:44.279Z,18.75
2018-05-21T00:31:44.049Z,18.75
2018-05-21T00:32:44.068Z,18.73
2018-05-21T00:33:44.365Z,18.8
2018-05-21T00:34:44.372Z,18.75
2018-05-21T00:35:44.152Z,18.75
2018-05-21T00:36:44.411Z,18.73
2018-05-21T00:37:44.444Z,18.73
2018-05-21T00:38:44.483Z,18.66
2018-05-21T00:39:44.230Z,18.74
2018-05-21T00:40:44.527Z,18.65
2018-05-21T00:41:44.552Z,18.58
2018-05-21T00:42:44.277Z,18.7
2018-05-21T00:43:44.570Z,18.59
2018-05-21T00:44:44.317Z,18.63
2018-05-21T00:45:44.604Z,18.58
2018-05-21T00:46:44.638Z,18.62
2018-05-21T00:47:44.662Z,18.59
2018-05-21T00:48:44.669Z,18.6
2018-05-21T00:49:44.452Z,18.56
2018-05-21T00:50:44.800Z,18.56
2018-05-21T00:51:44.736Z,18.55
2018-05-21T00:52:44.763Z,18.59
2018-05-21T00:53:44.800Z,18.55
2018-05-21T00:54:44.826Z,18.53
2018-05-21T00:55:44.561Z,18.47
2018-05-21T00:56:44.864Z,18.45
2018-05-21T00:57:44.863Z,18.49
2018-05-21T00:58:44.615Z,18.45
2018-05-21T00:59:44.923Z,18.38
2018-05-21T01:00:44.933Z,18.4
2018-05-21T01:01:44.683Z,18.44
2018-05-21T01:02:44.699Z,18.41
2018-05-21T01:03:45.009Z,18.41
2018-05-21T01:04:44.765Z,18.41
2018-05-21T01:05:45.053Z,18.43
2018-05-21T01:06:45.069Z,18.38
2018-05-21T01:07:45.104Z,18.28
2018-05-21T01:08:44.849Z,18.31
2018-05-21T01:09:45.142Z,18.29
2018-05-21T01:10:44.928Z,18.33
2018-05-21T01:11:45.247Z,18.28
2018-05-21T01:12:44.945Z,18.29
2018-05-21T01:13:44.988Z,18.33
2018-05-21T01:14:44.976Z,18.23
2018-05-21T01:15:45.190Z,18.29
2018-05-21T01:16:45.253Z,18.26
2018-05-21T01:17:45.295Z,18.22
2018-05-21T01:18:45.329Z,18.18
2018-05-21T01:19:45.334Z,18.2
2018-05-21T01:20:45.071Z,18.2
2018-05-21T01:21:45.195Z,18.18
2018-05-21T01:22:45.397Z,18.18
2018-05-21T01:23:45.161Z,18.1
2018-05-21T01:24:45.466Z,18.15
2018-05-21T01:25:45.481Z,18.11
2018-05-21T01:26:45.507Z,18.18
2018-05-21T01:27:45.500Z,18.15
2018-05-21T01:28:45.511Z,18.11
2018-05-21T01:29:45.527Z,18.04
2018-05-21T01:30:45.323Z,18.04
2018-05-21T01:31:45.312Z,18.05
2018-05-21T01:32:45.948Z,18.1
2018-05-21T01:33:45.642Z,18.01
2018-05-21T01:34:45.663Z,18.11
2018-05-21T01:35:45.675Z,18.05
2018-05-21T01:36:45.430Z,18
2018-05-21T01:37:45.435Z,18.01
2018-05-21T01:38:45.737Z,18.05
2018-05-21T01:39:45.748Z,18.05
2018-05-21T01:40:45.522Z,17.98
2018-05-21T01:41:45.514Z,18
2018-05-21T01:42:45.834Z,17.97
2018-05-21T01:43:45.578Z,18.01
2018-05-21T01:44:45.915Z,17.94
2018-05-21T01:45:45.613Z,17.92
2018-05-21T01:46:45.640Z,17.9
2018-05-21T01:47:45.990Z,17.9
2018-05-21T01:48:45.679Z,17.89
2018-05-21T01:49:45.701Z,17.86
2018-05-21T01:50:46.010Z,17.85
2018-05-21T01:51:45.993Z,17.87
2018-05-21T01:52:46.046Z,17.87
2018-05-21T01:53:46.059Z,17.87
2018-05-21T01:54:45.816Z,17.87
2018-05-21T01:55:46.088Z,17.79
2018-05-21T01:56:46.126Z,17.79
2018-05-21T01:57:45.852Z,17.79
2018-05-21T01:58:46.155Z,17.76
2018-05-21T01:59:46.291Z,17.76
2018-05-21T02:00:45.929Z,17.74
2018-05-21T02:01:45.955Z,17.7
2018-05-21T02:02:46.243Z,17.71
2018-05-21T02:03:46.284Z,17.7
2018-05-21T02:04:46.295Z,17.67
2018-05-21T02:05:46.040Z,17.76
2018-05-21T02:06:46.341Z,17.68
2018-05-21T02:07:46.408Z,17.68
2018-05-21T02:08:46.458Z,17.64
2018-05-21T02:09:46.113Z,17.65
2018-05-21T02:10:46.399Z,17.64
2018-05-21T02:11:46.171Z,17.65
2018-05-21T02:12:46.455Z,17.64
2018-05-21T02:13:46.458Z,17.67
2018-05-21T02:14:46.490Z,17.65
2018-05-21T02:15:45.960Z,17.54
2018-05-21T02:16:46.268Z,17.63
2018-05-21T02:17:46.285Z,17.54
2018-05-21T02:18:46.585Z,17.56
2018-05-21T02:19:46.578Z,17.48
2018-05-21T02:20:46.627Z,17.49
2018-05-21T02:21:46.644Z,17.54
2018-05-21T02:22:46.680Z,17.59
2018-05-21T02:23:46.663Z,17.57
2018-05-21T02:24:46.436Z,17.57
2018-05-21T02:25:46.450Z,17.46
2018-05-21T02:26:46.745Z,17.56
2018-05-21T02:27:46.469Z,17.42
2018-05-21T02:28:46.781Z,17.51
2018-05-21T02:29:46.775Z,17.48
2018-05-21T02:30:46.547Z,17.36
2018-05-21T02:31:46.849Z,17.56
2018-05-21T02:32:46.606Z,17.36
2018-05-21T02:33:46.880Z,17.38
2018-05-21T02:34:46.641Z,17.38
2018-05-21T02:35:46.920Z,17.39
2018-05-21T02:36:46.693Z,17.38
2018-05-21T02:37:46.970Z,17.31
2018-05-21T02:38:46.456Z,17.3
2018-05-21T02:39:46.464Z,17.34
2018-05-21T02:40:47.028Z,17.31
2018-05-21T02:41:46.777Z,17.31
2018-05-21T02:42:47.061Z,17.34
2018-05-21T02:43:47.122Z,17.24
2018-05-21T02:44:46.561Z,17.24
2018-05-21T02:45:46.866Z,17.26
2018-05-21T02:46:47.166Z,17.24
2018-05-21T02:47:46.923Z,17.23
2018-05-21T02:48:47.193Z,17.24
2018-05-21T02:49:47.330Z,17.26
2018-05-21T02:50:47.332Z,17.19
2018-05-21T02:51:47.253Z,17.23
2018-05-21T02:52:47.004Z,17.14
2018-05-21T02:53:47.317Z,17.19
2018-05-21T02:54:47.319Z,17.23
2018-05-21T02:55:47.336Z,17.12
2018-05-21T02:56:47.363Z,17.12
2018-05-21T02:57:47.374Z,17.12
2018-05-21T02:58:47.387Z,17.16
2018-05-21T02:59:47.403Z,17.12
2018-05-21T03:00:47.515Z,17.06
2018-05-21T03:01:47.460Z,17.12
2018-05-21T03:02:47.463Z,17.09
2018-05-21T03:03:47.516Z,17.15
2018-05-21T03:04:47.519Z,17.04
2018-05-21T03:05:47.515Z,17.01
2018-05-21T03:06:47.566Z,17.08
2018-05-21T03:07:47.580Z,17.04
2018-05-21T03:08:47.606Z,16.93
2018-05-21T03:09:47.075Z,17.05
2018-05-21T03:10:47.349Z,17.06
2018-05-21T03:11:47.641Z,17.08
2018-05-21T03:12:47.427Z,16.94
2018-05-21T03:13:47.699Z,16.91
2018-05-21T03:14:47.489Z,17.02
2018-05-21T03:15:47.750Z,17.06
2018-05-21T03:16:47.752Z,17.01
2018-05-21T03:17:47.513Z,16.99
2018-05-21T03:18:47.813Z,16.97
2018-05-21T03:19:47.822Z,16.97
2018-05-21T03:20:47.847Z,16.97
2018-05-21T03:21:47.877Z,17.04
2018-05-21T03:22:47.888Z,17.04
2018-05-21T03:23:47.632Z,16.94
2018-05-21T03:24:47.937Z,16.94
2018-05-21T03:25:47.947Z,16.91
2018-05-21T03:26:47.692Z,16.99
2018-05-21T03:27:47.705Z,16.91
2018-05-21T03:28:47.739Z,16.9
2018-05-21T03:29:47.468Z,16.91
2018-05-21T03:30:48.042Z,16.86
2018-05-21T03:31:47.808Z,16.9
2018-05-21T03:32:47.817Z,16.78
2018-05-21T03:33:48.102Z,16.81
2018-05-21T03:34:48.126Z,16.83
2018-05-21T03:35:48.151Z,16.81
2018-05-21T03:36:48.170Z,16.79
2018-05-21T03:37:48.183Z,16.81
2018-05-21T03:38:48.213Z,16.87
2018-05-21T03:39:47.954Z,16.79
2018-05-21T03:40:48.240Z,16.75
2018-05-21T03:41:47.993Z,16.79
2018-05-21T03:42:48.305Z,16.76
2018-05-21T03:43:48.289Z,16.76
2018-05-21T03:44:48.333Z,16.78
2018-05-21T03:45:48.081Z,16.81
2018-05-21T03:46:48.414Z,16.78
2018-05-21T03:47:48.395Z,16.79
2018-05-21T03:48:48.399Z,16.72
2018-05-21T03:49:48.148Z,16.75
2018-05-21T03:50:48.168Z,16.69
2018-05-21T03:51:48.448Z,16.78
2018-05-21T03:52:48.226Z,16.64
2018-05-21T03:53:48.497Z,16.65
2018-05-21T03:54:48.510Z,16.65
2018-05-21T03:55:48.551Z,16.75
2018-05-21T03:56:48.578Z,16.72
2018-05-21T03:57:48.585Z,16.61
2018-05-21T03:58:48.599Z,16.72
2018-05-21T03:59:48.637Z,16.69
2018-05-21T04:00:48.627Z,16.64
2018-05-21T04:01:48.680Z,16.68
2018-05-21T04:02:48.702Z,16.65
2018-05-21T04:03:48.437Z,16.64
2018-05-21T04:04:48.716Z,16.65
2018-05-21T04:05:48.490Z,16.66
2018-05-21T04:06:48.502Z,16.66
2018-05-21T04:07:48.248Z,16.64
2018-05-21T04:08:48.528Z,16.65
2018-05-21T04:09:48.836Z,16.65
2018-05-21T04:10:48.830Z,16.65
2018-05-21T04:11:48.687Z,16.6
2018-05-21T04:12:48.886Z,16.56
2018-05-21T04:13:48.915Z,16.57
2018-05-21T04:14:48.928Z,16.57
2018-05-21T04:15:48.950Z,16.56
2018-05-21T04:16:48.774Z,16.56
2018-05-21T04:17:49.005Z,16.64
2018-05-21T04:18:49.172Z,16.56
2018-05-21T04:19:49.028Z,16.54
2018-05-21T04:20:48.787Z,16.57
2018-05-21T04:21:48.788Z,16.54
2018-05-21T04:22:48.807Z,16.54
2018-05-21T04:23:48.833Z,16.53
2018-05-21T04:24:49.141Z,16.53
2018-05-21T04:25:48.858Z,16.49
2018-05-21T04:26:49.165Z,16.57
2018-05-21T04:27:49.184Z,16.58
2018-05-21T04:28:49.196Z,16.54
2018-05-21T04:29:49.211Z,16.53
2018-05-21T04:30:49.247Z,16.5
2018-05-21T04:31:49.000Z,16.54
2018-05-21T04:32:49.285Z,16.56
2018-05-21T04:33:49.025Z,16.54
2018-05-21T04:34:49.348Z,16.47
2018-05-21T04:35:49.091Z,16.5
2018-05-21T04:36:49.381Z,16.43
2018-05-21T04:37:49.101Z,16.47
2018-05-21T04:38:49.397Z,16.54
2018-05-21T04:39:49.152Z,16.5
2018-05-21T04:40:49.167Z,16.43
2018-05-21T04:41:49.449Z,16.51
2018-05-21T04:42:49.493Z,16.53
2018-05-21T04:43:49.507Z,16.51
2018-05-21T04:44:49.518Z,16.43
2018-05-21T04:45:49.527Z,16.53
2018-05-21T04:46:49.011Z,16.47
2018-05-21T04:47:49.580Z,16.47
2018-05-21T04:48:49.612Z,16.53
2018-05-21T04:49:49.350Z,16.53
2018-05-21T04:50:49.375Z,16.54
2018-05-21T04:51:49.675Z,16.49
2018-05-21T04:52:49.681Z,16.42
2018-05-21T04:53:49.693Z,16.56
2018-05-21T04:54:49.444Z,16.51
2018-05-21T04:55:49.747Z,16.53
2018-05-21T04:56:49.749Z,16.53
2018-05-21T04:57:49.510Z,16.46
2018-05-21T04:58:49.518Z,16.47
2018-05-21T04:59:49.549Z,16.39
2018-05-21T05:00:49.823Z,16.42
2018-05-21T05:01:49.850Z,16.51
2018-05-21T05:02:49.877Z,16.43
2018-05-21T05:03:49.646Z,16.58
2018-05-21T05:04:49.918Z,16.41
2018-05-21T05:05:49.669Z,16.47
2018-05-21T05:06:49.960Z,16.47
2018-05-21T05:07:49.698Z,16.47
2018-05-21T05:08:49.715Z,16.5
2018-05-21T05:09:49.478Z,16.42
2018-05-21T05:10:49.867Z,16.43
2018-05-21T05:11:50.041Z,16.5
2018-05-21T05:12:50.064Z,16.46
2018-05-21T05:13:50.469Z,16.42
2018-05-21T05:14:49.837Z,16.46
2018-05-21T05:15:50.131Z,16.41
2018-05-21T05:16:50.151Z,16.38
2018-05-21T05:17:50.189Z,16.42
2018-05-21T05:18:50.198Z,16.46
2018-05-21T05:19:50.196Z,16.41
2018-05-21T05:20:49.963Z,16.42
2018-05-21T05:21:50.235Z,16.46
2018-05-21T05:22:50.262Z,16.49
2018-05-21T05:23:50.303Z,16.41
2018-05-21T05:24:50.312Z,16.39
2018-05-21T05:25:50.330Z,16.38
2018-05-21T05:26:50.357Z,16.42
2018-05-21T05:27:50.377Z,16.38
2018-05-21T05:28:50.110Z,16.43
2018-05-21T05:29:50.412Z,16.38
2018-05-21T05:30:50.423Z,16.42
2018-05-21T05:31:50.466Z,16.43
2018-05-21T05:32:50.472Z,16.38
2018-05-21T05:33:50.491Z,16.43
2018-05-21T05:34:50.602Z,16.43
2018-05-21T05:35:50.522Z,16.56
2018-05-21T05:36:50.567Z,16.41
2018-05-21T05:37:50.576Z,16.51
2018-05-21T05:38:50.591Z,16.39
2018-05-21T05:39:50.341Z,16.51
2018-05-21T05:40:50.634Z,16.58
2018-05-21T05:41:50.644Z,16.51
2018-05-21T05:42:50.376Z,16.5
2018-05-21T05:43:50.420Z,16.49
2018-05-21T05:44:50.436Z,16.6
2018-05-21T05:45:50.739Z,16.57
2018-05-21T05:46:50.810Z,16.57
2018-05-21T05:47:50.748Z,16.57
2018-05-21T05:48:51.036Z,16.51
2018-05-21T05:49:50.587Z,16.6
2018-05-21T05:50:50.830Z,16.61
2018-05-21T05:51:50.892Z,16.68
2018-05-21T05:52:50.881Z,16.64
2018-05-21T05:53:50.323Z,16.61
2018-05-21T05:54:50.897Z,16.68
2018-05-21T05:55:50.674Z,16.68
2018-05-21T05:56:50.922Z,16.68
2018-05-21T05:57:50.959Z,16.71
2018-05-21T05:58:50.995Z,16.65
2018-05-21T05:59:51.013Z,16.75
2018-05-21T06:00:51.016Z,16.74
2018-05-21T06:01:51.055Z,16.72
2018-05-21T06:02:51.070Z,16.76
2018-05-21T06:03:51.099Z,16.76
2018-05-21T06:04:51.097Z,16.83
2018-05-21T06:05:51.114Z,16.86
2018-05-21T06:06:50.867Z,16.83
2018-05-21T06:07:51.161Z,16.79
2018-05-21T06:08:51.205Z,16.83
2018-05-21T06:09:51.204Z,16.84
2018-05-21T06:10:50.938Z,16.91
2018-05-21T06:11:50.968Z,16.9
2018-05-21T06:12:51.234Z,16.94
2018-05-21T06:13:51.635Z,16.9
2018-05-21T06:14:51.300Z,17.02
2018-05-21T06:15:51.315Z,17.02
2018-05-21T06:16:51.061Z,17.01
2018-05-21T06:17:51.354Z,16.99
2018-05-21T06:18:51.119Z,16.89
2018-05-21T06:19:50.854Z,17.02
2018-05-21T06:20:51.443Z,17.06
2018-05-21T06:21:51.445Z,17.02
2018-05-21T06:22:51.445Z,17.05
2018-05-21T06:23:51.455Z,17.12
2018-05-21T06:24:51.510Z,17.09
2018-05-21T06:25:51.628Z,17.06
2018-05-21T06:26:51.278Z,17.09
2018-05-21T06:27:51.273Z,17.16
2018-05-21T06:28:51.560Z,17.2
2018-05-21T06:29:51.605Z,17.19
2018-05-21T06:30:51.350Z,17.19
2018-05-21T06:31:51.349Z,17.23
2018-05-21T06:32:51.648Z,17.31
2018-05-21T06:33:51.803Z,17.34
2018-05-21T06:34:51.709Z,17.41
2018-05-21T06:35:51.436Z,17.34
2018-05-21T06:36:51.725Z,17.48
2018-05-21T06:37:51.755Z,17.48
2018-05-21T06:38:51.513Z,17.52
2018-05-21T06:39:51.515Z,17.51
2018-05-21T06:40:51.809Z,17.48
2018-05-21T06:41:51.835Z,17.54
2018-05-21T06:42:51.861Z,17.57
2018-05-21T06:43:51.865Z,17.67
2018-05-21T06:44:51.885Z,17.64
2018-05-21T06:45:51.650Z,17.71
2018-05-21T06:46:51.661Z,17.71
2018-05-21T06:47:52.251Z,17.71
2018-05-21T06:48:51.962Z,17.76
2018-05-21T06:49:51.737Z,17.79
2018-05-21T06:50:52.005Z,17.85
2018-05-21T06:51:52.069Z,17.94
2018-05-21T06:52:52.051Z,17.94
2018-05-21T06:53:51.793Z,18
2018-05-21T06:54:52.101Z,17.98
2018-05-21T06:55:52.118Z,17.98
2018-05-21T06:56:51.950Z,17.98
2018-05-21T06:57:52.234Z,18.05
2018-05-21T06:58:52.166Z,18.03
2018-05-21T06:59:52.370Z,18.23
2018-05-21T07:00:52.227Z,18.19
2018-05-21T07:01:52.156Z,18.18
2018-05-21T07:02:51.991Z,18.29
2018-05-21T07:03:51.990Z,18.34
2018-05-21T07:04:52.328Z,18.4
2018-05-21T07:05:52.330Z,18.34
2018-05-21T07:06:52.359Z,18.41
2018-05-21T07:07:52.433Z,18.49
2018-05-21T07:08:52.108Z,18.49
2018-05-21T07:09:52.138Z,18.6
2018-05-21T07:10:52.147Z,18.62
2018-05-21T07:11:52.440Z,18.7
2018-05-21T07:12:52.215Z,18.74
2018-05-21T07:13:52.198Z,18.74
2018-05-21T07:14:52.482Z,18.89
2018-05-21T07:15:52.254Z,18.8
2018-05-21T07:16:52.529Z,18.98
2018-05-21T07:17:52.556Z,19.02
2018-05-21T07:18:52.611Z,19.15
2018-05-21T07:19:52.595Z,19.16
2018-05-21T07:20:52.731Z,19.22
2018-05-21T07:21:52.646Z,19.29
2018-05-21T07:22:52.677Z,19.41
2018-05-21T07:23:52.667Z,19.47
2018-05-21T07:24:52.701Z,19.52
2018-05-21T07:25:52.440Z,19.59
2018-05-21T07:26:52.463Z,19.56
2018-05-21T07:27:52.768Z,19.71
2018-05-21T07:28:52.527Z,19.82
2018-05-21T07:29:52.554Z,19.86
2018-05-21T07:30:52.545Z,19.89
2018-05-21T07:31:52.836Z,20.04
2018-05-21T07:32:52.586Z,20.03
2018-05-21T07:33:52.896Z,20.21
2018-05-21T07:34:52.927Z,20.26
2018-05-21T07:35:52.651Z,20.37
2018-05-21T07:36:52.416Z,20.37
2018-05-21T07:37:52.692Z,20.48
2018-05-21T07:38:52.949Z,20.4
2018-05-21T07:39:53.006Z,20.48
2018-05-21T07:40:53.058Z,20.55
2018-05-21T07:41:53.054Z,20.65
2018-05-21T07:42:53.070Z,20.74
2018-05-21T07:43:52.560Z,20.8
2018-05-21T07:44:53.407Z,20.88
2018-05-21T07:45:53.146Z,20.97
2018-05-21T07:46:53.172Z,21
2018-05-21T07:47:52.653Z,21.02
2018-05-21T07:48:52.936Z,21.22
2018-05-21T07:49:53.247Z,21.21
2018-05-21T07:50:53.038Z,21.29
2018-05-21T07:51:53.259Z,21.4
2018-05-21T07:52:53.276Z,21.39
2018-05-21T07:53:53.314Z,21.39
2018-05-21T07:54:53.338Z,21.43
2018-05-21T07:55:53.345Z,21.58
2018-05-21T07:56:53.356Z,21.6
2018-05-21T07:57:52.857Z,21.7
2018-05-21T07:58:53.419Z,21.8
2018-05-21T07:59:53.422Z,21.85
2018-05-21T08:00:53.459Z,21.92
2018-05-21T08:01:53.465Z,21.99
2018-05-21T08:02:53.511Z,22
2018-05-21T08:03:53.233Z,22.13
2018-05-21T08:04:53.524Z,22.23
2018-05-21T08:05:53.293Z,22.39
2018-05-21T08:06:53.578Z,22.39
2018-05-21T08:07:53.336Z,22.48
2018-05-21T08:08:53.704Z,22.51
2018-05-21T08:09:53.634Z,22.62
2018-05-21T08:10:53.657Z,22.6
2018-05-21T08:11:53.709Z,22.72
2018-05-21T08:12:53.714Z,22.8
2018-05-21T08:13:53.723Z,22.9
2018-05-21T08:14:53.838Z,22.91
2018-05-21T08:15:53.790Z,23.03
2018-05-21T08:16:53.822Z,23.12
2018-05-21T08:17:53.561Z,23.17
2018-05-21T08:18:53.838Z,23.31
2018-05-21T08:19:53.892Z,23.28
2018-05-21T08:20:53.896Z,23.25
2018-05-21T08:21:53.908Z,23.39
2018-05-21T08:22:53.918Z,23.44
2018-05-21T08:23:53.963Z,23.59
2018-05-21T08:24:55.158Z,23.59
2018-05-21T08:25:54.653Z,23.69
2018-05-21T08:26:54.012Z,23.73
2018-05-21T08:27:54.070Z,23.77
2018-05-21T08:28:53.798Z,23.83
2018-05-21T08:29:54.109Z,24.01
2018-05-21T08:30:54.120Z,24.03
2018-05-21T08:31:54.152Z,24.17
2018-05-21T08:32:54.173Z,24.21
2018-05-21T08:33:54.183Z,24.23
2018-05-21T08:34:54.024Z,24.36
2018-05-21T08:35:54.242Z,24.36
2018-05-21T08:36:54.240Z,24.4
2018-05-21T08:37:54.294Z,24.48
2018-05-21T08:38:54.281Z,24.57
2018-05-21T08:39:54.323Z,24.6
2018-05-21T08:40:54.057Z,24.61
2018-05-21T08:41:54.379Z,24.76
2018-05-21T08:42:54.447Z,24.69
2018-05-21T08:43:54.152Z,24.85
2018-05-21T08:44:53.906Z,24.84
2018-05-21T08:45:54.172Z,24.92
2018-05-21T08:46:54.198Z,24.92
2018-05-21T08:47:54.581Z,25.01
2018-05-21T08:48:54.703Z,25.11
2018-05-21T08:49:54.528Z,25.14
2018-05-21T08:50:54.300Z,25.23
2018-05-21T08:51:54.330Z,25.36
2018-05-21T08:52:54.630Z,25.5
2018-05-21T08:53:54.651Z,25.63
2018-05-21T08:54:54.667Z,25.51
2018-05-21T08:55:54.750Z,25.66
2018-05-21T08:56:54.895Z,25.68
2018-05-21T08:57:54.767Z,25.8
2018-05-21T08:58:54.899Z,25.91
2018-05-21T08:59:54.773Z,25.98
2018-05-21T09:00:54.520Z,26.07
2018-05-21T09:01:54.826Z,26.15
2018-05-21T09:02:54.583Z,26.23
2018-05-21T09:03:55.135Z,26.22
2018-05-21T09:04:54.920Z,26.36
2018-05-21T09:05:54.383Z,26.31
2018-05-21T09:06:54.959Z,26.25
2018-05-21T09:07:54.699Z,26.43
2018-05-21T09:08:55.018Z,26.45
2018-05-21T09:09:55.169Z,26.51
2018-05-21T09:10:55.063Z,26.48
2018-05-21T09:11:55.062Z,26.53
2018-05-21T09:12:55.087Z,26.59
2018-05-21T09:13:55.095Z,26.65
2018-05-21T09:14:55.141Z,26.66
2018-05-21T09:15:54.906Z,26.75
2018-05-21T09:16:55.221Z,26.83
2018-05-21T09:17:54.973Z,26.83
2018-05-21T09:18:55.262Z,26.9
2018-05-21T09:19:55.286Z,26.92
2018-05-21T09:20:55.023Z,27.02
2018-05-21T09:21:55.031Z,27.08
2018-05-21T09:22:55.340Z,27.12
2018-05-21T09:23:54.806Z,27.12
2018-05-21T09:24:55.378Z,27.18
2018-05-21T09:25:55.397Z,27.26
2018-05-21T09:26:55.437Z,27.21
2018-05-21T09:27:55.461Z,27.35
2018-05-21T09:28:55.506Z,27.37
2018-05-21T09:29:55.502Z,27.47
2018-05-21T09:30:55.531Z,27.48
2018-05-21T09:31:55.554Z,27.49
2018-05-21T09:32:55.583Z,27.6
2018-05-21T09:33:55.702Z,27.59
2018-05-21T09:34:55.644Z,27.67
2018-05-21T09:35:55.383Z,27.85
2018-05-21T09:36:55.702Z,27.85
2018-05-21T09:37:55.442Z,28
2018-05-21T09:38:55.764Z,28.04
2018-05-21T09:39:55.762Z,28.02
2018-05-21T09:40:55.224Z,28.07
2018-05-21T09:41:55.626Z,28.11
2018-05-21T09:42:55.576Z,28.2
2018-05-21T09:43:55.590Z,28.25
2018-05-21T09:44:55.887Z,28.27
2018-05-21T09:45:55.942Z,28.35
2018-05-21T09:46:55.914Z,28.41
2018-05-21T09:47:55.956Z,28.47
2018-05-21T09:48:55.976Z,28.54
2018-05-21T09:49:56.029Z,28.54
2018-05-21T09:50:56.036Z,28.51
2018-05-21T09:51:56.078Z,28.67
2018-05-21T09:52:56.089Z,28.62
2018-05-21T09:53:56.137Z,28.78
2018-05-21T09:54:56.142Z,28.79
2018-05-21T09:55:56.162Z,28.72
2018-05-21T09:56:56.297Z,28.86
2018-05-21T09:57:56.232Z,28.93
2018-05-21T09:58:56.254Z,29.01
2018-05-21T09:59:56.260Z,28.98
2018-05-21T10:00:56.025Z,29.02
2018-05-21T10:01:56.321Z,29.07
2018-05-21T10:02:56.343Z,29.17
2018-05-21T10:03:56.382Z,29.17
2018-05-21T10:04:56.407Z,29.34
2018-05-21T10:05:56.148Z,29.38
2018-05-21T10:06:56.473Z,29.35
2018-05-21T10:07:56.482Z,29.44
2018-05-21T10:08:56.242Z,29.49
2018-05-21T10:09:56.533Z,29.57
2018-05-21T10:10:56.552Z,29.59
2018-05-21T10:11:56.582Z,29.56
2018-05-21T10:12:56.615Z,29.68
2018-05-21T10:13:56.642Z,29.65
2018-05-21T10:14:56.387Z,29.69
2018-05-21T10:15:56.805Z,29.76
2018-05-21T10:16:56.456Z,29.79
2018-05-21T10:17:56.782Z,29.91
2018-05-21T10:18:56.491Z,29.97
2018-05-21T10:19:56.782Z,30.02
2018-05-21T10:20:56.838Z,30.05
2018-05-21T10:21:56.590Z,30.1
2018-05-21T10:22:56.624Z,30.21
2018-05-21T10:23:56.896Z,30.21
2018-05-21T10:24:56.644Z,30.28
2018-05-21T10:25:56.992Z,30.34
2018-05-21T10:26:56.960Z,30.44
2018-05-21T10:27:57.004Z,30.51
2018-05-21T10:28:57.044Z,30.53
2018-05-21T10:29:56.804Z,30.55
2018-05-21T10:30:57.124Z,30.66
2018-05-21T10:31:56.867Z,30.7
2018-05-21T10:32:56.865Z,30.7
2018-05-21T10:33:57.176Z,30.78
2018-05-21T10:34:57.205Z,30.9
2018-05-21T10:35:57.233Z,30.9
2018-05-21T10:36:57.021Z,31.02
2018-05-21T10:37:57.020Z,31.02
2018-05-21T10:38:57.039Z,31.06
2018-05-21T10:39:57.348Z,31.12
2018-05-21T10:40:57.367Z,31.12
2018-05-21T10:41:57.410Z,31.25
2018-05-21T10:42:57.442Z,31.31
2018-05-21T10:43:57.688Z,31.31
2018-05-21T10:44:57.475Z,31.37
2018-05-21T10:45:57.512Z,31.36
2018-05-21T10:46:57.305Z,31.33
2018-05-21T10:47:57.282Z,31.4
2018-05-21T10:48:57.580Z,31.43
2018-05-21T10:49:57.351Z,31.4
2018-05-21T10:50:57.709Z,31.43
2018-05-21T10:51:57.720Z,31.42
2018-05-21T10:52:57.459Z,31.44
2018-05-21T10:53:57.746Z,31.59
2018-05-21T10:54:57.778Z,31.52
2018-05-21T10:55:57.525Z,31.64
2018-05-21T10:56:57.855Z,31.66
2018-05-21T10:57:57.920Z,31.69
2018-05-21T10:58:57.901Z,31.84
2018-05-21T10:59:57.923Z,31.74
2018-05-21T11:00:57.951Z,31.8
2018-05-21T11:01:58.235Z,31.9
2018-05-21T11:02:57.986Z,31.9
2018-05-21T11:03:58.002Z,31.94
2018-05-21T11:04:58.070Z,31.94
2018-05-21T11:05:57.804Z,31.96
2018-05-21T11:06:58.094Z,32.07
2018-05-21T11:07:58.152Z,31.97
2018-05-21T11:08:58.172Z,32.09
2018-05-21T11:09:58.194Z,32.08
2018-05-21T11:10:57.976Z,32.07
2018-05-21T11:11:58.246Z,32.04
2018-05-21T11:12:58.320Z,32.08
2018-05-21T11:13:58.318Z,32.12
2018-05-21T11:14:58.048Z,32.15
2018-05-21T11:15:58.095Z,32.18
2018-05-21T11:16:58.390Z,32.19
2018-05-21T11:17:58.593Z,32.26
2018-05-21T11:18:58.451Z,32.15
2018-05-21T11:19:58.460Z,32.26
2018-05-21T11:20:57.950Z,32.27
2018-05-21T11:21:58.278Z,32.36
2018-05-21T11:22:58.293Z,32.31
2018-05-21T11:23:58.048Z,32.43
2018-05-21T11:24:58.339Z,32.43
2018-05-21T11:25:58.667Z,32.45
2018-05-21T11:26:58.688Z,32.45
2018-05-21T11:27:58.703Z,32.53
2018-05-21T11:28:58.762Z,32.63
2018-05-21T11:29:58.787Z,32.58
2018-05-21T11:30:58.544Z,32.67
2018-05-21T11:31:59.092Z,32.71
2018-05-21T11:32:58.849Z,32.85
2018-05-21T11:33:58.632Z,32.86
2018-05-21T11:34:58.661Z,32.9
2018-05-21T11:35:58.956Z,32.95
2018-05-21T11:36:58.982Z,32.96
2018-05-21T11:37:58.994Z,32.92
2018-05-21T11:38:59.033Z,32.97
2018-05-21T11:39:59.088Z,32.9
2018-05-21T11:40:59.106Z,33.01
2018-05-21T11:41:59.127Z,32.96
2018-05-21T11:42:59.181Z,33.12
2018-05-21T11:43:59.202Z,33.07
2018-05-21T11:44:59.226Z,33.11
2018-05-21T11:45:58.970Z,33.15
2018-05-21T11:46:59.285Z,33.2
2018-05-21T11:47:59.305Z,33.19
2018-05-21T11:48:59.335Z,33.27
2018-05-21T11:49:59.365Z,33.3
2018-05-21T11:50:59.402Z,33.28
2018-05-21T11:51:59.440Z,33.34
2018-05-21T11:52:59.435Z,33.4
2018-05-21T11:53:59.493Z,33.39
2018-05-21T11:54:59.523Z,33.5
2018-05-21T11:55:59.559Z,33.5
2018-05-21T11:56:59.588Z,33.47
2018-05-21T11:57:59.597Z,33.58
2018-05-21T11:58:59.355Z,33.67
2018-05-21T11:59:59.666Z,33.71
2018-05-21T12:00:59.441Z,33.77
2018-05-21T12:01:59.232Z,33.74
2018-05-21T12:02:59.768Z,33.76
2018-05-21T12:03:59.811Z,33.84
2018-05-21T12:04:59.829Z,33.94
2018-05-21T12:05:59.579Z,33.94
2018-05-21T12:06:59.607Z,33.96
2018-05-21T12:07:59.656Z,34.03
2018-05-21T12:08:59.927Z,33.95
2018-05-21T12:09:59.977Z,34.05
2018-05-21T12:10:59.745Z,34.01
2018-05-21T12:12:00.053Z,34.1
2018-05-21T12:12:59.784Z,34.1
2018-05-21T12:14:00.098Z,34.1
2018-05-21T12:15:00.119Z,34.08
2018-05-21T12:15:59.899Z,34.16
2018-05-21T12:17:00.201Z,34.16
2018-05-21T12:18:00.216Z,34.16
2018-05-21T12:19:00.255Z,34.13
2018-05-21T12:20:00.280Z,34.2
2018-05-21T12:21:00.305Z,34.14
2018-05-21T12:22:00.366Z,34.16
2018-05-21T12:23:00.117Z,34.16
2018-05-21T12:24:00.228Z,34.18
2018-05-21T12:25:00.437Z,34.24
2018-05-21T12:26:00.482Z,34.17
2018-05-21T12:27:00.494Z,34.21
2018-05-21T12:28:00.274Z,34.29
2018-05-21T12:29:00.281Z,34.29
2018-05-21T12:30:00.605Z,34.32
2018-05-21T12:31:00.347Z,34.33
2018-05-21T12:32:00.682Z,34.39
2018-05-21T12:33:00.421Z,34.39
2018-05-21T12:34:00.468Z,34.39
2018-05-21T12:35:00.750Z,34.38
2018-05-21T12:36:00.787Z,34.51
2018-05-21T12:37:00.551Z,34.54
2018-05-21T12:38:00.863Z,34.57
2018-05-21T12:39:00.611Z,34.57
2018-05-21T12:40:00.904Z,34.62
2018-05-21T12:41:00.696Z,34.62
2018-05-21T12:42:00.995Z,34.74
2018-05-21T12:43:00.737Z,34.71
2018-05-21T12:44:01.040Z,34.67
2018-05-21T12:45:00.804Z,34.74
2018-05-21T12:46:00.815Z,34.62
2018-05-21T12:47:01.435Z,34.8
2018-05-21T12:48:00.905Z,34.7
2018-05-21T12:49:00.918Z,34.73
2018-05-21T12:50:01.229Z,34.73
2018-05-21T12:51:00.980Z,34.71
2018-05-21T12:52:01.013Z,34.8
2018-05-21T12:53:01.324Z,34.81
2018-05-21T12:54:01.088Z,34.83
2018-05-21T12:55:01.417Z,34.83
2018-05-21T12:56:01.419Z,34.86